Airfield :
LOGIN :

Register | Disclaimer

   EN    FR    IT 

 










Legend :    VFR   Marginal VFR   IFR   Intensive IFR   Very Intensive IFR
Visi :
Ceiling :
>= 8 km
>= 3000ft
5 to 8 km
1000 to 3000 ft
1500m to 5 km
500 to 1000 ft
800 to 1500m
200 to 500 ft
< 800m
< 200 ft
Symbols :   Thunderstorms  Fog  Heavy snow  Heavy precipitations  Wind > 20 kt
SIGMETs :     Misc.  Thunderstorms  Icing  Turbulence  Mountain Waves  Volcanic Ashes







- Airport Elevation : 353 ft
- IATA code : ZAG


LDZA - Zagreb Pleso

CURRENT METAR :
  • 211330Z VRB02KT CAVOK 15/01 Q1026 NOSIG

EXPIRED METARs :
  • 211300Z VRB02KT CAVOK 15/01 Q1026 NOSIG
  • 211230Z VRB03KT CAVOK 14/02 Q1027 NOSIG
  • 211200Z VRB02KT CAVOK 13/01 Q1027 NOSIG
  • 211130Z VRB02KT CAVOK 13/01 Q1028 NOSIG

TAF TAF LDZA
Valid from the 21 at 12:00 until the 22 at 12:00 UTC


211125Z 2112/2212 22005KT 9999 SCT040 TX14/2113Z TN04/2204Z
PROB40
TEMPO 2208/2212 4000 -RA
ATIS : +385 1 6-259-214
No reported NOTAMs for that airfield.



MET'MAP, your aeronautical weather chart ! - Copyright ORBIFLY December 2007 - Disclaimer

ORBIFLY MET'MAP TEAM :

Programming & Development : Alexandra Zaïnal
Concept & Development : Baudouin d'Aumeries
Co-Development & Prog : Marc-Olivier Méhu
Technical & hardware support : Manuel Goepfert

Contact : metmap@orbifly.com




SOURCES & CREDITS :

   NOAA